createdAt,value
2019-01-02T08:53:17.355Z,9.00
2019-01-02T09:11:55.327Z,9.80
2019-01-02T09:14:22.410Z,9.56
2019-01-02T09:16:49.299Z,8.70
2019-01-02T09:19:16.311Z,9.43
2019-01-02T09:21:43.456Z,8.83
2019-01-02T09:24:10.394Z,11.47
2019-01-02T09:26:37.318Z,13.13
2019-01-02T09:29:04.635Z,17.57
2019-01-02T09:31:31.536Z,16.23
2019-01-02T09:33:58.898Z,18.92
2019-01-02T09:36:26.731Z,16.50
2019-01-02T09:38:53.663Z,16.30
2019-01-02T09:41:20.438Z,15.07
2019-01-02T09:43:49.140Z,15.30
2019-01-02T09:46:16.089Z,15.60
2019-01-02T09:48:42.993Z,14.53
2019-01-02T09:51:09.890Z,14.73
2019-01-02T09:53:36.768Z,14.07
2019-01-02T09:56:06.854Z,14.63
2019-01-02T09:58:33.642Z,13.73
2019-01-02T10:01:00.704Z,15.05
2019-01-02T10:03:27.771Z,14.53
2019-01-02T10:05:56.222Z,16.00
2019-01-02T10:08:22.861Z,14.96
2019-01-02T10:10:49.925Z,15.10
2019-01-02T10:13:18.098Z,14.87
2019-01-02T10:15:49.258Z,15.40
2019-01-02T10:18:16.933Z,14.57
2019-01-02T10:20:44.214Z,18.00
2019-01-02T10:23:11.404Z,20.47
2019-01-02T10:25:44.255Z,19.90
2019-01-02T10:28:11.403Z,21.13
2019-01-02T10:30:38.461Z,19.47
2019-01-02T10:33:05.185Z,21.35
2019-01-02T10:35:32.392Z,20.73
2019-01-02T10:37:59.137Z,18.25
2019-01-02T10:40:26.079Z,19.83
2019-01-02T10:42:53.119Z,17.96
2019-01-02T10:45:20.389Z,16.80
2019-01-02T10:47:47.250Z,19.37
2019-01-02T10:50:14.183Z,18.50
2019-01-02T10:52:41.337Z,17.45
2019-01-02T10:55:08.270Z,16.60
2019-01-02T10:57:35.388Z,16.20
2019-01-02T11:00:02.332Z,14.60
2019-01-02T11:02:29.504Z,15.03
2019-01-02T11:04:56.372Z,15.80
2019-01-02T11:07:23.269Z,14.97
2019-01-02T11:09:50.362Z,15.83
2019-01-02T11:12:17.520Z,16.27
2019-01-02T11:14:44.489Z,16.20
2019-01-02T11:17:11.506Z,16.55
2019-01-02T11:19:38.125Z,14.05
2019-01-02T11:22:05.079Z,15.93
2019-01-02T11:24:32.478Z,14.07
2019-01-02T11:26:59.367Z,14.23
2019-01-02T11:29:26.324Z,14.03
2019-01-02T11:31:53.375Z,14.77
2019-01-02T11:34:20.291Z,14.65
2019-01-02T11:36:53.079Z,15.75
2019-01-02T11:39:20.349Z,13.83
2019-01-02T11:41:47.281Z,15.40
2019-01-02T11:44:20.903Z,15.35
2019-01-02T11:46:43.008Z,17.30
2019-01-02T11:49:09.609Z,14.57
2019-01-02T11:51:36.414Z,16.82
2019-01-02T11:54:03.327Z,20.23
2019-01-02T11:56:30.918Z,18.63
2019-01-02T11:58:57.835Z,21.33
2019-01-02T12:01:24.788Z,21.87
2019-01-02T12:03:51.828Z,25.13
2019-01-02T12:06:20.291Z,23.22
2019-01-02T12:08:47.389Z,25.00
2019-01-02T12:11:14.582Z,24.23
2019-01-02T12:13:41.652Z,22.10
2019-01-02T12:16:08.313Z,20.33
2019-01-02T12:18:35.369Z,21.37
2019-01-02T12:21:03.046Z,20.20
2019-01-02T12:23:29.975Z,20.40
2019-01-02T12:25:56.946Z,22.90
2019-01-02T12:28:23.882Z,20.43
2019-01-02T12:30:50.868Z,20.55
2019-01-02T12:33:17.799Z,20.77
2019-01-02T12:35:44.633Z,19.35
2019-01-02T12:38:14.473Z,21.95
2019-01-02T12:40:41.454Z,20.20
2019-01-02T12:43:08.733Z,19.77
2019-01-02T12:45:35.727Z,19.13
2019-01-02T12:48:03.236Z,18.33
2019-01-02T12:50:30.322Z,17.20
2019-01-02T12:52:57.310Z,17.10
2019-01-02T12:55:24.225Z,18.47
2019-01-02T12:57:51.421Z,17.10
2019-01-02T13:00:18.352Z,18.00
2019-01-02T13:02:45.006Z,17.50
2019-01-02T13:05:12.026Z,17.93
2019-01-02T13:07:44.531Z,18.70
2019-01-02T13:10:09.022Z,17.60
2019-01-02T13:12:35.944Z,17.07
2019-01-02T13:15:03.532Z,18.27
2019-01-02T13:17:30.472Z,18.63
2019-01-02T13:19:57.357Z,19.57
2019-01-02T13:22:24.344Z,19.80
2019-01-02T13:24:51.174Z,18.55
2019-01-02T13:27:19.113Z,19.90
2019-01-02T13:29:46.089Z,21.57
2019-01-02T13:32:13.221Z,21.60
2019-01-02T13:34:40.145Z,20.27
2019-01-02T13:37:08.443Z,19.74
2019-01-02T13:39:35.305Z,18.80
2019-01-02T13:42:03.380Z,18.12
2019-01-02T13:44:30.338Z,17.57
2019-01-02T13:46:57.298Z,17.50
2019-01-02T13:49:26.269Z,16.63
2019-01-02T13:51:53.241Z,16.30
2019-01-02T13:54:20.259Z,15.57
2019-01-02T13:56:47.438Z,14.87
2019-01-02T13:59:14.372Z,16.00
2019-01-02T14:01:41.481Z,16.30
2019-01-02T14:04:08.454Z,14.60
2019-01-02T14:06:35.569Z,14.13
2019-01-02T14:09:03.535Z,13.65
2019-01-02T14:11:30.484Z,15.00
2019-01-02T14:13:57.402Z,13.40
2019-01-02T14:16:24.287Z,13.20
2019-01-02T14:18:51.322Z,14.20
2019-01-02T14:21:17.957Z,14.28
2019-01-02T14:23:44.877Z,12.57
2019-01-02T14:26:11.659Z,14.00
2019-01-02T14:28:38.591Z,11.37
2019-01-02T14:31:05.690Z,14.13
2019-01-02T14:33:33.778Z,14.50
2019-01-02T14:36:00.714Z,15.80
2019-01-02T14:38:29.890Z,16.05
2019-01-02T14:40:56.906Z,17.63
2019-01-02T14:43:23.870Z,18.33
2019-01-02T14:45:50.847Z,18.53
2019-01-02T14:48:17.955Z,17.90
2019-01-02T14:50:44.830Z,18.67
2019-01-02T14:53:11.833Z,17.87
2019-01-02T14:55:38.759Z,16.97
2019-01-02T14:58:07.265Z,16.93
2019-01-02T15:00:34.317Z,18.57
2019-01-02T15:03:01.235Z,16.23
2019-01-02T15:05:28.215Z,16.57
2019-01-02T15:07:56.664Z,15.57
2019-01-02T15:10:23.970Z,16.30
2019-01-02T15:12:50.913Z,15.53
2019-01-02T15:15:17.954Z,12.55
2019-01-02T15:17:44.898Z,14.63
2019-01-02T15:20:12.040Z,13.83
2019-01-02T15:22:38.979Z,14.60
2019-01-02T15:25:06.150Z,13.93
2019-01-02T15:27:34.127Z,12.68
2019-01-02T15:30:01.105Z,12.67
2019-01-02T15:32:28.097Z,11.73
2019-01-02T15:34:55.050Z,12.00
2019-01-02T15:37:22.174Z,12.45
2019-01-02T15:39:49.107Z,11.23
2019-01-02T15:42:16.202Z,10.90
2019-01-02T15:44:43.322Z,9.87
2019-01-02T15:47:10.183Z,10.63
2019-01-02T15:49:37.183Z,10.60
2019-01-02T15:52:04.699Z,10.53
2019-01-02T15:54:31.725Z,10.23
2019-01-02T15:56:58.699Z,9.40
2019-01-02T15:59:25.684Z,9.60
2019-01-02T16:01:52.315Z,8.98
2019-01-02T16:04:21.155Z,10.03
2019-01-02T16:06:48.352Z,8.73
2019-01-02T16:09:16.798Z,8.60
2019-01-02T16:11:43.732Z,8.70
2019-01-02T16:14:10.507Z,8.48
2019-01-02T16:16:37.456Z,8.97
2019-01-02T16:19:07.263Z,8.00
2019-01-02T16:21:34.869Z,7.87
2019-01-02T16:24:01.746Z,7.30
2019-01-02T16:26:28.686Z,6.97
2019-01-02T16:28:55.687Z,7.57
2019-01-02T16:31:23.007Z,6.80
2019-01-02T16:33:50.055Z,7.00
2019-01-02T16:36:16.809Z,6.30
2019-01-02T16:38:45.144Z,5.67
2019-01-02T16:41:11.852Z,6.87
2019-01-02T16:43:38.625Z,6.64
2019-01-02T16:46:05.771Z,5.53
2019-01-02T16:48:34.033Z,6.03
2019-01-02T16:51:01.042Z,6.30
2019-01-02T16:53:28.085Z,6.37
2019-01-02T16:55:54.996Z,7.70
2019-01-02T16:58:21.890Z,8.00
2019-01-02T17:00:48.823Z,7.33
2019-01-02T17:03:16.094Z,6.85
2019-01-02T17:05:42.992Z,7.23
2019-01-02T17:08:09.653Z,8.68
2019-01-02T17:10:36.551Z,8.63
2019-01-02T17:13:03.488Z,8.67
2019-01-02T17:15:30.304Z,7.50
2019-01-02T17:17:57.324Z,7.83
2019-01-02T17:20:24.400Z,9.13
2019-01-02T17:22:51.300Z,8.67
2019-01-02T17:25:18.378Z,9.05
2019-01-02T17:27:45.496Z,8.53
2019-01-02T17:30:13.155Z,9.20
2019-01-02T17:32:40.394Z,8.25
2019-01-02T17:35:07.333Z,8.50
2019-01-02T17:37:34.205Z,8.70
2019-01-02T17:40:04.989Z,7.90
2019-01-02T17:42:31.885Z,8.20
2019-01-02T17:44:58.553Z,6.97
2019-01-02T17:47:25.168Z,7.47
2019-01-02T17:49:54.220Z,8.30
2019-01-02T17:52:21.016Z,7.35
2019-01-02T17:54:47.961Z,6.23
2019-01-02T17:57:15.035Z,6.20
2019-01-02T18:07:43.747Z,7.95
2019-01-02T18:10:13.537Z,8.57
2019-01-02T18:12:40.571Z,7.30
2019-01-02T18:15:11.869Z,7.63
2019-01-02T18:17:39.289Z,7.12
2019-01-02T18:22:58.529Z,8.05
2019-01-02T18:25:28.833Z,6.92
2019-01-02T18:27:56.494Z,7.56
2019-01-02T18:30:23.771Z,7.47
2019-01-02T18:32:50.699Z,7.07
2019-01-02T18:35:20.968Z,6.03
2019-01-02T18:37:48.981Z,7.58
2019-01-02T18:40:30.787Z,6.33
2019-01-02T18:42:59.501Z,6.75
2019-01-02T18:45:28.674Z,6.23
2019-01-02T18:47:57.300Z,6.80
2019-01-02T18:50:26.363Z,6.80
2019-01-02T18:52:52.985Z,6.84
2019-01-02T18:55:22.517Z,5.70
2019-01-02T18:57:52.547Z,7.22
2019-01-02T19:02:56.142Z,6.20
2019-01-02T19:05:23.067Z,6.12
2019-01-02T19:07:52.737Z,5.87
2019-01-02T19:10:28.803Z,5.75
2019-01-02T19:12:55.456Z,5.72
2019-01-02T19:15:24.473Z,5.30
2019-01-02T19:17:51.853Z,5.43
2019-01-02T19:20:20.274Z,5.12
2019-01-02T19:22:51.102Z,4.83
2019-01-02T19:25:22.380Z,5.15
2019-01-02T19:27:49.707Z,5.20
2019-01-02T19:30:16.706Z,5.13
2019-01-02T19:32:44.582Z,4.77
2019-01-02T19:35:11.501Z,5.13
2019-01-02T19:37:38.631Z,4.47
2019-01-02T19:40:06.672Z,5.30
2019-01-02T19:42:36.434Z,4.35
2019-01-02T19:45:03.328Z,4.83
2019-01-02T19:47:32.421Z,5.20
2019-01-02T19:50:01.544Z,5.25
2019-01-02T19:52:32.213Z,5.20
2019-01-02T19:55:02.311Z,4.40
2019-01-02T19:57:29.417Z,4.92
2019-01-02T19:59:58.405Z,4.40
2019-01-02T20:02:25.608Z,4.65
2019-01-02T20:04:52.610Z,4.53
2019-01-02T20:07:20.183Z,4.70
2019-01-02T20:09:47.693Z,3.75
2019-01-02T20:12:14.868Z,3.60
2019-01-02T20:14:43.370Z,4.50
2019-01-02T20:17:13.995Z,3.80
2019-01-02T20:19:41.662Z,3.80
2019-01-02T20:22:11.198Z,3.20
2019-01-02T20:24:40.915Z,3.67
2019-01-02T20:27:10.820Z,3.30
2019-01-02T20:29:39.452Z,3.83
2019-01-02T20:32:10.054Z,4.37
2019-01-02T20:34:39.952Z,3.77
2019-01-02T20:37:09.819Z,3.30
2019-01-02T20:39:37.866Z,3.43
2019-01-02T20:42:08.444Z,2.85
2019-01-02T20:44:36.282Z,3.60
2019-01-02T20:47:02.908Z,2.63
2019-01-02T20:49:32.112Z,2.58
2019-01-02T20:52:01.392Z,3.08
2019-01-02T20:54:31.076Z,3.07
2019-01-02T20:56:59.761Z,3.00
2019-01-02T20:59:29.008Z,3.07
2019-01-02T21:02:02.033Z,2.90
2019-01-02T21:04:31.262Z,3.73
2019-01-02T21:06:59.207Z,2.77
2019-01-02T21:09:25.979Z,3.22
2019-01-02T21:12:15.556Z,3.47
2019-01-02T21:14:42.778Z,3.03
2019-01-02T21:17:11.961Z,2.85
2019-01-02T21:19:40.969Z,2.60
2019-01-02T21:22:15.457Z,3.05
2019-01-02T21:24:42.344Z,2.90
2019-01-02T21:27:11.082Z,2.80
2019-01-02T21:29:40.513Z,2.52
2019-01-02T21:32:20.152Z,2.60
2019-01-02T21:34:49.451Z,2.65
2019-01-02T21:37:16.906Z,2.30
2019-01-02T21:39:44.070Z,2.62
2019-01-02T21:42:12.842Z,2.80
2019-01-02T21:44:40.043Z,2.75
